Terminal Aerodrome Forecast
Issued by NWS Cleveland, OH

Home | Current Version | Previous Version | Graphics & Text | Print | Product List | Glossary On
Versions: 1 2 3 4 5 6 7 8 9 10 11 12 13 14 15 16 17 18 19 20 21 22 23 24 25 26 27 28 29 30
939
FTUS41 KCLE 180310 AAA
TAFCLE
TAF AMD
KCLE 180310Z 1803/1906 25010KT P6SM OVC010
     FM180800 25012KT P6SM -SHRA OVC006
     FM181300 25010KT 4SM -DZ BR OVC006
     FM181600 25010KT P6SM OVC006
     FM182300 23007KT P6SM OVC015=

USA.gov is the U.S. government's official web portal to all federal, state and local government web resources and services.